sensor_id;sensor_type;location;lat;lon;timestamp;P1;durP1;ratioP1;P2;durP2;ratioP2
53367;SDS011;39271;45.618;20.024;2022-11-13T00:01:20;4.68;;;3.35;;
53367;SDS011;39271;45.618;20.024;2022-11-13T00:03:47;3.35;;;2.25;;
53367;SDS011;39271;45.618;20.024;2022-11-13T00:06:14;8.75;;;2.63;;
53367;SDS011;39271;45.618;20.024;2022-11-13T00:08:40;6.03;;;3.65;;
53367;SDS011;39271;45.618;20.024;2022-11-13T00:11:17;11.18;;;3.45;;
53367;SDS011;39271;45.618;20.024;2022-11-13T00:13:43;4.30;;;3.47;;
53367;SDS011;39271;45.618;20.024;2022-11-13T00:16:10;2.83;;;2.20;;
53367;SDS011;39271;45.618;20.024;2022-11-13T00:18:38;4.28;;;2.90;;
53367;SDS011;39271;45.618;20.024;2022-11-13T00:21:05;4.82;;;3.63;;
53367;SDS011;39271;45.618;20.024;2022-11-13T00:23:32;3.92;;;2.05;;
53367;SDS011;39271;45.618;20.024;2022-11-13T00:26:05;12.32;;;2.72;;
53367;SDS011;39271;45.618;20.024;2022-11-13T00:28:32;6.38;;;2.80;;
53367;SDS011;39271;45.618;20.024;2022-11-13T00:30:58;5.53;;;3.05;;
53367;SDS011;39271;45.618;20.024;2022-11-13T00:33:25;5.68;;;3.15;;
53367;SDS011;39271;45.618;20.024;2022-11-13T00:35:51;6.07;;;3.15;;
53367;SDS011;39271;45.618;20.024;2022-11-13T00:38:17;3.10;;;2.78;;
53367;SDS011;39271;45.618;20.024;2022-11-13T00:40:43;2.42;;;1.85;;
53367;SDS011;39271;45.618;20.024;2022-11-13T00:43:10;5.45;;;2.92;;
53367;SDS011;39271;45.618;20.024;2022-11-13T00:45:36;5.32;;;2.85;;
53367;SDS011;39271;45.618;20.024;2022-11-13T00:48:02;3.83;;;2.55;;
53367;SDS011;39271;45.618;20.024;2022-11-13T00:50:28;16.92;;;5.60;;
53367;SDS011;39271;45.618;20.024;2022-11-13T00:52:54;7.68;;;2.55;;
53367;SDS011;39271;45.618;20.024;2022-11-13T00:55:20;4.40;;;2.08;;
53367;SDS011;39271;45.618;20.024;2022-11-13T00:57:46;3.63;;;2.22;;
53367;SDS011;39271;45.618;20.024;2022-11-13T01:00:12;6.97;;;2.45;;
53367;SDS011;39271;45.618;20.024;2022-11-13T01:02:38;5.50;;;3.75;;
53367;SDS011;39271;45.618;20.024;2022-11-13T01:05:04;2.92;;;2.05;;
53367;SDS011;39271;45.618;20.024;2022-11-13T01:07:30;3.65;;;2.55;;
53367;SDS011;39271;45.618;20.024;2022-11-13T01:09:57;8.23;;;3.30;;
53367;SDS011;39271;45.618;20.024;2022-11-13T01:12:23;2.05;;;1.52;;
53367;SDS011;39271;45.618;20.024;2022-11-13T01:14:49;5.07;;;1.88;;
53367;SDS011;39271;45.618;20.024;2022-11-13T01:17:15;4.75;;;2.85;;
53367;SDS011;39271;45.618;20.024;2022-11-13T01:19:41;2.60;;;1.95;;
53367;SDS011;39271;45.618;20.024;2022-11-13T01:22:08;18.02;;;3.80;;
53367;SDS011;39271;45.618;20.024;2022-11-13T01:24:34;4.70;;;3.55;;
53367;SDS011;39271;45.618;20.024;2022-11-13T01:27:00;5.97;;;3.95;;
53367;SDS011;39271;45.618;20.024;2022-11-13T01:29:26;3.90;;;2.95;;
53367;SDS011;39271;45.618;20.024;2022-11-13T01:31:52;6.03;;;4.13;;
53367;SDS011;39271;45.618;20.024;2022-11-13T01:34:18;13.43;;;4.45;;
53367;SDS011;39271;45.618;20.024;2022-11-13T01:36:44;10.73;;;5.05;;
53367;SDS011;39271;45.618;20.024;2022-11-13T01:39:11;8.05;;;3.05;;
53367;SDS011;39271;45.618;20.024;2022-11-13T01:41:37;7.85;;;3.95;;
53367;SDS011;39271;45.618;20.024;2022-11-13T01:44:03;12.13;;;3.75;;
53367;SDS011;39271;45.618;20.024;2022-11-13T01:46:30;3.05;;;2.40;;
53367;SDS011;39271;45.618;20.024;2022-11-13T01:51:40;9.05;;;3.53;;
53367;SDS011;39271;45.618;20.024;2022-11-13T01:54:10;6.03;;;3.13;;
53367;SDS011;39271;45.618;20.024;2022-11-13T01:56:38;11.65;;;3.78;;
53367;SDS011;39271;45.618;20.024;2022-11-13T01:59:08;4.85;;;3.08;;
53367;SDS011;39271;45.618;20.024;2022-11-13T02:01:36;6.47;;;3.15;;
53367;SDS011;39271;45.618;20.024;2022-11-13T02:04:02;7.85;;;3.38;;
53367;SDS011;39271;45.618;20.024;2022-11-13T02:06:33;3.75;;;2.67;;
53367;SDS011;39271;45.618;20.024;2022-11-13T02:09:01;2.60;;;1.85;;
53367;SDS011;39271;45.618;20.024;2022-11-13T02:11:27;7.05;;;3.20;;
53367;SDS011;39271;45.618;20.024;2022-11-13T02:13:53;9.07;;;3.55;;
53367;SDS011;39271;45.618;20.024;2022-11-13T02:16:19;6.50;;;3.38;;
53367;SDS011;39271;45.618;20.024;2022-11-13T02:18:46;4.40;;;2.55;;
53367;SDS011;39271;45.618;20.024;2022-11-13T02:21:19;5.25;;;2.97;;
53367;SDS011;39271;45.618;20.024;2022-11-13T02:23:49;4.03;;;2.10;;
53367;SDS011;39271;45.618;20.024;2022-11-13T02:26:19;2.60;;;1.77;;
53367;SDS011;39271;45.618;20.024;2022-11-13T02:29:01;7.38;;;3.42;;
53367;SDS011;39271;45.618;20.024;2022-11-13T02:31:27;2.10;;;1.40;;
53367;SDS011;39271;45.618;20.024;2022-11-13T02:33:53;4.20;;;2.83;;
53367;SDS011;39271;45.618;20.024;2022-11-13T02:36:20;3.08;;;2.22;;
53367;SDS011;39271;45.618;20.024;2022-11-13T02:38:47;5.65;;;2.42;;
53367;SDS011;39271;45.618;20.024;2022-11-13T02:41:14;4.82;;;2.60;;
53367;SDS011;39271;45.618;20.024;2022-11-13T02:43:40;5.55;;;2.63;;
53367;SDS011;39271;45.618;20.024;2022-11-13T02:46:06;9.27;;;2.80;;
53367;SDS011;39271;45.618;20.024;2022-11-13T02:48:33;3.67;;;3.38;;
53367;SDS011;39271;45.618;20.024;2022-11-13T02:50:59;5.82;;;3.10;;
53367;SDS011;39271;45.618;20.024;2022-11-13T02:53:25;4.25;;;1.88;;
53367;SDS011;39271;45.618;20.024;2022-11-13T02:55:51;4.88;;;2.47;;
53367;SDS011;39271;45.618;20.024;2022-11-13T02:58:17;4.63;;;2.13;;
53367;SDS011;39271;45.618;20.024;2022-11-13T03:00:43;4.57;;;2.33;;
53367;SDS011;39271;45.618;20.024;2022-11-13T03:03:09;2.63;;;1.60;;
53367;SDS011;39271;45.618;20.024;2022-11-13T03:05:35;3.67;;;2.13;;
53367;SDS011;39271;45.618;20.024;2022-11-13T03:08:01;7.13;;;2.88;;
53367;SDS011;39271;45.618;20.024;2022-11-13T03:10:28;4.40;;;2.47;;
53367;SDS011;39271;45.618;20.024;2022-11-13T03:12:54;1.50;;;1.38;;
53367;SDS011;39271;45.618;20.024;2022-11-13T03:15:20;5.55;;;3.38;;
53367;SDS011;39271;45.618;20.024;2022-11-13T03:17:46;3.97;;;2.85;;
53367;SDS011;39271;45.618;20.024;2022-11-13T03:20:12;6.93;;;4.00;;
53367;SDS011;39271;45.618;20.024;2022-11-13T03:22:38;2.72;;;2.53;;
53367;SDS011;39271;45.618;20.024;2022-11-13T03:25:04;3.35;;;2.05;;
53367;SDS011;39271;45.618;20.024;2022-11-13T03:29:57;5.50;;;2.93;;
53367;SDS011;39271;45.618;20.024;2022-11-13T03:32:23;8.23;;;2.45;;
53367;SDS011;39271;45.618;20.024;2022-11-13T03:34:49;2.65;;;2.40;;
53367;SDS011;39271;45.618;20.024;2022-11-13T03:37:15;5.82;;;4.10;;
53367;SDS011;39271;45.618;20.024;2022-11-13T03:39:41;13.73;;;3.13;;
53367;SDS011;39271;45.618;20.024;2022-11-13T03:42:07;2.67;;;1.10;;
53367;SDS011;39271;45.618;20.024;2022-11-13T03:44:33;6.72;;;3.00;;
53367;SDS011;39271;45.618;20.024;2022-11-13T03:46:59;2.60;;;2.10;;
53367;SDS011;39271;45.618;20.024;2022-11-13T03:49:25;4.00;;;2.22;;
53367;SDS011;39271;45.618;20.024;2022-11-13T03:51:51;4.28;;;2.72;;
53367;SDS011;39271;45.618;20.024;2022-11-13T03:54:17;5.47;;;2.58;;
53367;SDS011;39271;45.618;20.024;2022-11-13T03:56:44;4.95;;;2.88;;
53367;SDS011;39271;45.618;20.024;2022-11-13T03:59:10;2.47;;;1.90;;
53367;SDS011;39271;45.618;20.024;2022-11-13T04:01:36;4.47;;;2.90;;
53367;SDS011;39271;45.618;20.024;2022-11-13T04:04:02;8.35;;;2.95;;
53367;SDS011;39271;45.618;20.024;2022-11-13T04:06:28;2.80;;;2.53;;
53367;SDS011;39271;45.618;20.024;2022-11-13T04:08:54;5.80;;;4.05;;
53367;SDS011;39271;45.618;20.024;2022-11-13T04:11:21;4.93;;;2.78;;
53367;SDS011;39271;45.618;20.024;2022-11-13T04:13:47;4.40;;;2.85;;
53367;SDS011;39271;45.618;20.024;2022-11-13T04:16:13;1.15;;;1.05;;
53367;SDS011;39271;45.618;20.024;2022-11-13T04:18:39;2.08;;;1.80;;
53367;SDS011;39271;45.618;20.024;2022-11-13T04:21:05;6.65;;;3.55;;
53367;SDS011;39271;45.618;20.024;2022-11-13T04:23:31;4.93;;;2.70;;
53367;SDS011;39271;45.618;20.024;2022-11-13T04:28:24;4.82;;;2.80;;
53367;SDS011;39271;45.618;20.024;2022-11-13T04:30:51;3.00;;;2.13;;
53367;SDS011;39271;45.618;20.024;2022-11-13T04:33:17;4.93;;;1.98;;
53367;SDS011;39271;45.618;20.024;2022-11-13T04:35:43;4.40;;;2.22;;
53367;SDS011;39271;45.618;20.024;2022-11-13T04:38:10;1.77;;;1.65;;
53367;SDS011;39271;45.618;20.024;2022-11-13T04:40:36;3.97;;;2.38;;
53367;SDS011;39271;45.618;20.024;2022-11-13T04:45:29;4.38;;;2.72;;
53367;SDS011;39271;45.618;20.024;2022-11-13T04:47:57;4.60;;;3.13;;
53367;SDS011;39271;45.618;20.024;2022-11-13T04:50:23;5.22;;;3.25;;
53367;SDS011;39271;45.618;20.024;2022-11-13T04:52:49;6.60;;;1.85;;
53367;SDS011;39271;45.618;20.024;2022-11-13T04:55:15;5.35;;;2.50;;
53367;SDS011;39271;45.618;20.024;2022-11-13T04:57:42;2.78;;;1.92;;
53367;SDS011;39271;45.618;20.024;2022-11-13T05:00:08;10.07;;;3.33;;
53367;SDS011;39271;45.618;20.024;2022-11-13T05:02:34;4.50;;;2.45;;
53367;SDS011;39271;45.618;20.024;2022-11-13T05:07:27;14.48;;;4.32;;
53367;SDS011;39271;45.618;20.024;2022-11-13T05:09:53;19.30;;;3.38;;
53367;SDS011;39271;45.618;20.024;2022-11-13T05:12:19;5.43;;;3.00;;
53367;SDS011;39271;45.618;20.024;2022-11-13T05:14:45;4.00;;;3.13;;
53367;SDS011;39271;45.618;20.024;2022-11-13T05:17:11;9.88;;;4.70;;
53367;SDS011;39271;45.618;20.024;2022-11-13T05:19:38;3.35;;;2.22;;
53367;SDS011;39271;45.618;20.024;2022-11-13T05:22:04;4.80;;;2.53;;
53367;SDS011;39271;45.618;20.024;2022-11-13T05:24:31;2.53;;;2.17;;
53367;SDS011;39271;45.618;20.024;2022-11-13T05:26:57;14.25;;;3.63;;
53367;SDS011;39271;45.618;20.024;2022-11-13T05:29:23;9.45;;;3.13;;
53367;SDS011;39271;45.618;20.024;2022-11-13T05:31:49;6.55;;;3.10;;
53367;SDS011;39271;45.618;20.024;2022-11-13T05:34:15;6.22;;;3.17;;
53367;SDS011;39271;45.618;20.024;2022-11-13T05:36:41;13.02;;;4.05;;
53367;SDS011;39271;45.618;20.024;2022-11-13T05:39:07;3.78;;;2.95;;
53367;SDS011;39271;45.618;20.024;2022-11-13T05:41:33;4.05;;;3.05;;
53367;SDS011;39271;45.618;20.024;2022-11-13T05:43:59;8.38;;;3.45;;
53367;SDS011;39271;45.618;20.024;2022-11-13T05:46:26;3.90;;;3.00;;
53367;SDS011;39271;45.618;20.024;2022-11-13T05:48:54;4.57;;;2.08;;
53367;SDS011;39271;45.618;20.024;2022-11-13T05:51:21;3.58;;;2.10;;
53367;SDS011;39271;45.618;20.024;2022-11-13T05:53:47;2.90;;;2.28;;
53367;SDS011;39271;45.618;20.024;2022-11-13T05:56:16;2.97;;;1.77;;
53367;SDS011;39271;45.618;20.024;2022-11-13T06:01:46;4.05;;;2.90;;
53367;SDS011;39271;45.618;20.024;2022-11-13T06:04:12;5.55;;;2.58;;
53367;SDS011;39271;45.618;20.024;2022-11-13T06:06:39;12.52;;;4.00;;
53367;SDS011;39271;45.618;20.024;2022-11-13T06:09:06;7.72;;;3.67;;
53367;SDS011;39271;45.618;20.024;2022-11-13T06:13:58;4.75;;;2.95;;
53367;SDS011;39271;45.618;20.024;2022-11-13T06:16:29;5.65;;;3.00;;
53367;SDS011;39271;45.618;20.024;2022-11-13T06:18:56;4.53;;;3.55;;
53367;SDS011;39271;45.618;20.024;2022-11-13T06:21:24;6.45;;;3.42;;
53367;SDS011;39271;45.618;20.024;2022-11-13T06:23:50;6.50;;;3.72;;
53367;SDS011;39271;45.618;20.024;2022-11-13T06:28:45;10.90;;;4.43;;
53367;SDS011;39271;45.618;20.024;2022-11-13T06:31:13;7.47;;;4.30;;
53367;SDS011;39271;45.618;20.024;2022-11-13T06:33:40;15.15;;;5.72;;
53367;SDS011;39271;45.618;20.024;2022-11-13T06:36:10;6.95;;;3.90;;
53367;SDS011;39271;45.618;20.024;2022-11-13T06:38:37;12.68;;;5.15;;
53367;SDS011;39271;45.618;20.024;2022-11-13T06:41:03;4.28;;;2.97;;
53367;SDS011;39271;45.618;20.024;2022-11-13T06:43:30;5.57;;;3.22;;
53367;SDS011;39271;45.618;20.024;2022-11-13T06:45:56;3.75;;;3.25;;
53367;SDS011;39271;45.618;20.024;2022-11-13T06:48:22;2.72;;;2.40;;
53367;SDS011;39271;45.618;20.024;2022-11-13T06:50:49;6.70;;;2.28;;
53367;SDS011;39271;45.618;20.024;2022-11-13T06:53:16;6.10;;;3.38;;
53367;SDS011;39271;45.618;20.024;2022-11-13T06:55:43;5.85;;;2.10;;
53367;SDS011;39271;45.618;20.024;2022-11-13T06:58:09;3.97;;;2.63;;
53367;SDS011;39271;45.618;20.024;2022-11-13T07:00:35;6.38;;;3.22;;
53367;SDS011;39271;45.618;20.024;2022-11-13T07:03:01;6.05;;;3.15;;
53367;SDS011;39271;45.618;20.024;2022-11-13T07:05:27;5.35;;;2.55;;
53367;SDS011;39271;45.618;20.024;2022-11-13T07:07:53;7.07;;;3.08;;
53367;SDS011;39271;45.618;20.024;2022-11-13T07:10:19;6.18;;;2.55;;
53367;SDS011;39271;45.618;20.024;2022-11-13T07:12:45;1.63;;;1.52;;
53367;SDS011;39271;45.618;20.024;2022-11-13T07:15:11;3.28;;;1.65;;
53367;SDS011;39271;45.618;20.024;2022-11-13T07:20:04;1.10;;;1.02;;
53367;SDS011;39271;45.618;20.024;2022-11-13T07:22:30;5.25;;;3.15;;
53367;SDS011;39271;45.618;20.024;2022-11-13T07:24:56;3.70;;;2.63;;
53367;SDS011;39271;45.618;20.024;2022-11-13T07:27:22;5.07;;;3.20;;
53367;SDS011;39271;45.618;20.024;2022-11-13T07:32:14;6.47;;;2.40;;
53367;SDS011;39271;45.618;20.024;2022-11-13T07:34:41;2.65;;;1.60;;
53367;SDS011;39271;45.618;20.024;2022-11-13T07:37:07;7.38;;;3.05;;
53367;SDS011;39271;45.618;20.024;2022-11-13T07:39:33;8.07;;;3.28;;
53367;SDS011;39271;45.618;20.024;2022-11-13T07:41:59;1.00;;;1.00;;
53367;SDS011;39271;45.618;20.024;2022-11-13T07:44:25;2.58;;;1.92;;
53367;SDS011;39271;45.618;20.024;2022-11-13T07:46:51;4.97;;;2.58;;
53367;SDS011;39271;45.618;20.024;2022-11-13T07:49:17;5.32;;;3.70;;
53367;SDS011;39271;45.618;20.024;2022-11-13T07:51:43;4.95;;;2.03;;
53367;SDS011;39271;45.618;20.024;2022-11-13T07:54:09;4.82;;;2.40;;
53367;SDS011;39271;45.618;20.024;2022-11-13T07:56:35;30.85;;;3.13;;
53367;SDS011;39271;45.618;20.024;2022-11-13T07:59:01;4.60;;;2.35;;
53367;SDS011;39271;45.618;20.024;2022-11-13T08:01:27;3.40;;;2.30;;
53367;SDS011;39271;45.618;20.024;2022-11-13T08:03:53;5.13;;;3.45;;
53367;SDS011;39271;45.618;20.024;2022-11-13T08:06:19;4.70;;;2.35;;
53367;SDS011;39271;45.618;20.024;2022-11-13T08:08:48;9.45;;;3.75;;
53367;SDS011;39271;45.618;20.024;2022-11-13T08:11:14;5.20;;;2.25;;
53367;SDS011;39271;45.618;20.024;2022-11-13T08:13:40;7.70;;;3.00;;
53367;SDS011;39271;45.618;20.024;2022-11-13T08:16:06;3.45;;;2.42;;
53367;SDS011;39271;45.618;20.024;2022-11-13T08:18:33;2.70;;;2.45;;
53367;SDS011;39271;45.618;20.024;2022-11-13T08:21:02;7.25;;;1.77;;
53367;SDS011;39271;45.618;20.024;2022-11-13T08:23:29;2.60;;;1.85;;
53367;SDS011;39271;45.618;20.024;2022-11-13T08:25:55;6.30;;;1.95;;
53367;SDS011;39271;45.618;20.024;2022-11-13T08:28:21;4.63;;;2.88;;
53367;SDS011;39271;45.618;20.024;2022-11-13T08:30:48;1.05;;;1.00;;
53367;SDS011;39271;45.618;20.024;2022-11-13T08:33:14;2.40;;;2.17;;
53367;SDS011;39271;45.618;20.024;2022-11-13T08:35:40;1.83;;;1.50;;
53367;SDS011;39271;45.618;20.024;2022-11-13T08:38:06;2.92;;;1.08;;
53367;SDS011;39271;45.618;20.024;2022-11-13T08:40:33;2.00;;;1.48;;
53367;SDS011;39271;45.618;20.024;2022-11-13T08:43:00;4.85;;;2.17;;
53367;SDS011;39271;45.618;20.024;2022-11-13T08:45:27;2.22;;;1.25;;
53367;SDS011;39271;45.618;20.024;2022-11-13T08:47:53;2.33;;;1.27;;
53367;SDS011;39271;45.618;20.024;2022-11-13T08:52:45;2.08;;;1.67;;
53367;SDS011;39271;45.618;20.024;2022-11-13T08:55:12;4.50;;;1.83;;
53367;SDS011;39271;45.618;20.024;2022-11-13T08:57:38;1.95;;;1.33;;
53367;SDS011;39271;45.618;20.024;2022-11-13T09:00:04;1.45;;;1.20;;
53367;SDS011;39271;45.618;20.024;2022-11-13T09:02:31;6.55;;;3.03;;
53367;SDS011;39271;45.618;20.024;2022-11-13T09:04:57;1.17;;;0.85;;
53367;SDS011;39271;45.618;20.024;2022-11-13T09:07:23;1.42;;;1.15;;
53367;SDS011;39271;45.618;20.024;2022-11-13T09:09:49;1.77;;;0.90;;
53367;SDS011;39271;45.618;20.024;2022-11-13T09:12:15;6.05;;;2.65;;
53367;SDS011;39271;45.618;20.024;2022-11-13T09:14:42;2.75;;;1.67;;
53367;SDS011;39271;45.618;20.024;2022-11-13T09:19:34;1.58;;;1.02;;
53367;SDS011;39271;45.618;20.024;2022-11-13T09:22:00;5.03;;;1.85;;
53367;SDS011;39271;45.618;20.024;2022-11-13T09:24:26;2.85;;;1.23;;
53367;SDS011;39271;45.618;20.024;2022-11-13T09:26:52;2.80;;;1.95;;
53367;SDS011;39271;45.618;20.024;2022-11-13T09:29:18;3.67;;;1.63;;
53367;SDS011;39271;45.618;20.024;2022-11-13T09:31:45;1.05;;;0.95;;
53367;SDS011;39271;45.618;20.024;2022-11-13T09:34:11;1.95;;;1.13;;
53367;SDS011;39271;45.618;20.024;2022-11-13T09:36:37;1.67;;;0.95;;
53367;SDS011;39271;45.618;20.024;2022-11-13T09:39:03;1.27;;;1.08;;
53367;SDS011;39271;45.618;20.024;2022-11-13T09:42:13;3.90;;;2.20;;
53367;SDS011;39271;45.618;20.024;2022-11-13T09:44:23;5.03;;;2.05;;
53367;SDS011;39271;45.618;20.024;2022-11-13T09:46:54;0.88;;;0.80;;
53367;SDS011;39271;45.618;20.024;2022-11-13T09:49:31;1.65;;;0.98;;
53367;SDS011;39271;45.618;20.024;2022-11-13T09:51:58;2.08;;;1.30;;
53367;SDS011;39271;45.618;20.024;2022-11-13T09:54:26;0.90;;;0.85;;
53367;SDS011;39271;45.618;20.024;2022-11-13T10:09:51;1.52;;;1.38;;
53367;SDS011;39271;45.618;20.024;2022-11-13T10:12:19;2.17;;;1.48;;
53367;SDS011;39271;45.618;20.024;2022-11-13T10:14:47;7.20;;;2.05;;
53367;SDS011;39271;45.618;20.024;2022-11-13T10:17:24;3.10;;;1.58;;
53367;SDS011;39271;45.618;20.024;2022-11-13T10:19:53;0.82;;;0.82;;
53367;SDS011;39271;45.618;20.024;2022-11-13T10:22:26;1.85;;;1.02;;
53367;SDS011;39271;45.618;20.024;2022-11-13T10:24:53;1.15;;;0.73;;
53367;SDS011;39271;45.618;20.024;2022-11-13T10:27:23;2.72;;;1.48;;
53367;SDS011;39271;45.618;20.024;2022-11-13T10:32:25;2.42;;;1.50;;
53367;SDS011;39271;45.618;20.024;2022-11-13T10:34:53;1.65;;;1.30;;
53367;SDS011;39271;45.618;20.024;2022-11-13T10:45:38;1.27;;;1.05;;
53367;SDS011;39271;45.618;20.024;2022-11-13T10:48:05;1.45;;;1.35;;
53367;SDS011;39271;45.618;20.024;2022-11-13T10:50:31;1.85;;;1.27;;
53367;SDS011;39271;45.618;20.024;2022-11-13T10:52:58;4.57;;;1.17;;
53367;SDS011;39271;45.618;20.024;2022-11-13T10:57:53;1.98;;;1.00;;
53367;SDS011;39271;45.618;20.024;2022-11-13T11:00:24;1.45;;;1.23;;
53367;SDS011;39271;45.618;20.024;2022-11-13T11:02:51;1.77;;;1.40;;
53367;SDS011;39271;45.618;20.024;2022-11-13T11:05:19;0.95;;;0.93;;
53367;SDS011;39271;45.618;20.024;2022-11-13T11:07:45;1.80;;;1.38;;
53367;SDS011;39271;45.618;20.024;2022-11-13T11:12:39;1.35;;;1.25;;
53367;SDS011;39271;45.618;20.024;2022-11-13T11:15:29;1.80;;;1.50;;
53367;SDS011;39271;45.618;20.024;2022-11-13T11:17:56;1.30;;;1.20;;
53367;SDS011;39271;45.618;20.024;2022-11-13T11:25:39;1.48;;;1.38;;
53367;SDS011;39271;45.618;20.024;2022-11-13T11:28:25;3.38;;;1.23;;
53367;SDS011;39271;45.618;20.024;2022-11-13T11:30:54;1.35;;;1.02;;
53367;SDS011;39271;45.618;20.024;2022-11-13T11:33:27;1.40;;;1.20;;
53367;SDS011;39271;45.618;20.024;2022-11-13T11:36:05;1.52;;;1.10;;
53367;SDS011;39271;45.618;20.024;2022-11-13T11:38:39;1.27;;;1.17;;
53367;SDS011;39271;45.618;20.024;2022-11-13T11:41:16;1.15;;;1.05;;
53367;SDS011;39271;45.618;20.024;2022-11-13T11:46:18;0.75;;;0.75;;
53367;SDS011;39271;45.618;20.024;2022-11-13T11:48:49;0.68;;;0.68;;
53367;SDS011;39271;45.618;20.024;2022-11-13T11:54:02;1.20;;;0.85;;
53367;SDS011;39271;45.618;20.024;2022-11-13T11:56:32;3.20;;;1.52;;
53367;SDS011;39271;45.618;20.024;2022-11-13T11:59:07;0.80;;;0.80;;
53367;SDS011;39271;45.618;20.024;2022-11-13T12:14:41;0.65;;;0.65;;
53367;SDS011;39271;45.618;20.024;2022-11-13T12:27:35;1.23;;;1.13;;
53367;SDS011;39271;45.618;20.024;2022-11-13T12:30:08;0.85;;;0.70;;
53367;SDS011;39271;45.618;20.024;2022-11-13T12:35:21;1.60;;;1.02;;
53367;SDS011;39271;45.618;20.024;2022-11-13T12:37:55;1.08;;;0.98;;
53367;SDS011;39271;45.618;20.024;2022-11-13T12:47:50;3.50;;;1.52;;
53367;SDS011;39271;45.618;20.024;2022-11-13T12:50:24;1.25;;;1.13;;
53367;SDS011;39271;45.618;20.024;2022-11-13T12:52:57;6.10;;;1.48;;
53367;SDS011;39271;45.618;20.024;2022-11-13T12:55:24;2.13;;;1.63;;
53367;SDS011;39271;45.618;20.024;2022-11-13T12:57:51;3.05;;;1.30;;
53367;SDS011;39271;45.618;20.024;2022-11-13T13:00:27;2.58;;;1.65;;
53367;SDS011;39271;45.618;20.024;2022-11-13T13:05:36;1.38;;;1.25;;
53367;SDS011;39271;45.618;20.024;2022-11-13T13:20:56;0.75;;;0.60;;
53367;SDS011;39271;45.618;20.024;2022-11-13T13:23:27;2.00;;;1.52;;
53367;SDS011;39271;45.618;20.024;2022-11-13T13:26:04;1.10;;;1.00;;
53367;SDS011;39271;45.618;20.024;2022-11-13T13:28:31;2.08;;;1.50;;
53367;SDS011;39271;45.618;20.024;2022-11-13T13:38:54;3.17;;;2.38;;
53367;SDS011;39271;45.618;20.024;2022-11-13T13:44:09;2.10;;;0.95;;
53367;SDS011;39271;45.618;20.024;2022-11-13T13:46:39;3.00;;;1.38;;
53367;SDS011;39271;45.618;20.024;2022-11-13T13:49:07;3.00;;;1.33;;
53367;SDS011;39271;45.618;20.024;2022-11-13T13:51:38;2.53;;;1.45;;
53367;SDS011;39271;45.618;20.024;2022-11-13T13:54:06;1.27;;;1.08;;
53367;SDS011;39271;45.618;20.024;2022-11-13T13:56:39;1.55;;;1.13;;
53367;SDS011;39271;45.618;20.024;2022-11-13T13:59:51;2.13;;;1.38;;
53367;SDS011;39271;45.618;20.024;2022-11-13T14:01:55;1.37;;;1.27;;
53367;SDS011;39271;45.618;20.024;2022-11-13T14:04:23;1.42;;;1.00;;
53367;SDS011;39271;45.618;20.024;2022-11-13T14:06:53;1.70;;;0.77;;
53367;SDS011;39271;45.618;20.024;2022-11-13T14:09:20;1.92;;;0.95;;
53367;SDS011;39271;45.618;20.024;2022-11-13T14:11:47;4.25;;;2.05;;
53367;SDS011;39271;45.618;20.024;2022-11-13T14:16:47;1.35;;;1.15;;
53367;SDS011;39271;45.618;20.024;2022-11-13T14:19:14;4.90;;;1.52;;
53367;SDS011;39271;45.618;20.024;2022-11-13T14:24:08;0.82;;;0.80;;
53367;SDS011;39271;45.618;20.024;2022-11-13T14:26:37;3.25;;;1.17;;
53367;SDS011;39271;45.618;20.024;2022-11-13T14:31:30;3.70;;;1.45;;
53367;SDS011;39271;45.618;20.024;2022-11-13T14:34:01;0.88;;;0.80;;
53367;SDS011;39271;45.618;20.024;2022-11-13T14:36:28;2.65;;;1.00;;
53367;SDS011;39271;45.618;20.024;2022-11-13T14:38:59;7.97;;;2.38;;
53367;SDS011;39271;45.618;20.024;2022-11-13T14:41:31;10.68;;;1.85;;
53367;SDS011;39271;45.618;20.024;2022-11-13T14:43:57;2.63;;;1.73;;
53367;SDS011;39271;45.618;20.024;2022-11-13T14:46:34;6.20;;;2.25;;
53367;SDS011;39271;45.618;20.024;2022-11-13T14:49:00;3.17;;;2.10;;
53367;SDS011;39271;45.618;20.024;2022-11-13T14:51:28;2.80;;;2.10;;
53367;SDS011;39271;45.618;20.024;2022-11-13T14:53:56;4.22;;;2.20;;
53367;SDS011;39271;45.618;20.024;2022-11-13T14:56:29;4.80;;;1.40;;
53367;SDS011;39271;45.618;20.024;2022-11-13T14:59:11;3.63;;;1.63;;
53367;SDS011;39271;45.618;20.024;2022-11-13T15:01:38;4.13;;;2.53;;
53367;SDS011;39271;45.618;20.024;2022-11-13T15:04:04;2.00;;;1.48;;
53367;SDS011;39271;45.618;20.024;2022-11-13T15:08:56;1.15;;;0.85;;
53367;SDS011;39271;45.618;20.024;2022-11-13T15:13:48;1.48;;;1.23;;
53367;SDS011;39271;45.618;20.024;2022-11-13T15:16:16;7.07;;;2.58;;
53367;SDS011;39271;45.618;20.024;2022-11-13T15:18:45;4.20;;;2.33;;
53367;SDS011;39271;45.618;20.024;2022-11-13T15:21:11;3.50;;;2.67;;
53367;SDS011;39271;45.618;20.024;2022-11-13T15:23:37;12.07;;;3.42;;
53367;SDS011;39271;45.618;20.024;2022-11-13T15:26:04;3.05;;;2.45;;
53367;SDS011;39271;45.618;20.024;2022-11-13T15:30:56;7.78;;;3.60;;
53367;SDS011;39271;45.618;20.024;2022-11-13T15:33:22;6.00;;;3.15;;
53367;SDS011;39271;45.618;20.024;2022-11-13T15:35:48;3.25;;;2.42;;
53367;SDS011;39271;45.618;20.024;2022-11-13T15:38:14;8.82;;;4.20;;
53367;SDS011;39271;45.618;20.024;2022-11-13T15:40:40;7.68;;;3.72;;
53367;SDS011;39271;45.618;20.024;2022-11-13T15:43:16;7.10;;;2.92;;
53367;SDS011;39271;45.618;20.024;2022-11-13T15:45:44;6.85;;;3.60;;
53367;SDS011;39271;45.618;20.024;2022-11-13T15:50:37;3.85;;;2.75;;
53367;SDS011;39271;45.618;20.024;2022-11-13T15:53:04;7.18;;;2.60;;
53367;SDS011;39271;45.618;20.024;2022-11-13T15:55:30;5.45;;;3.00;;
53367;SDS011;39271;45.618;20.024;2022-11-13T15:57:57;11.57;;;4.63;;
53367;SDS011;39271;45.618;20.024;2022-11-13T16:00:24;8.13;;;4.95;;
53367;SDS011;39271;45.618;20.024;2022-11-13T16:02:51;12.82;;;4.50;;
53367;SDS011;39271;45.618;20.024;2022-11-13T16:05:20;7.55;;;4.30;;
53367;SDS011;39271;45.618;20.024;2022-11-13T16:07:49;14.20;;;5.65;;
53367;SDS011;39271;45.618;20.024;2022-11-13T16:10:15;11.18;;;3.70;;
53367;SDS011;39271;45.618;20.024;2022-11-13T16:15:07;7.10;;;2.67;;
53367;SDS011;39271;45.618;20.024;2022-11-13T16:17:37;9.07;;;2.65;;
53367;SDS011;39271;45.618;20.024;2022-11-13T16:20:04;5.22;;;2.03;;
53367;SDS011;39271;45.618;20.024;2022-11-13T16:22:31;3.45;;;2.80;;
53367;SDS011;39271;45.618;20.024;2022-11-13T16:24:57;4.72;;;2.28;;
53367;SDS011;39271;45.618;20.024;2022-11-13T16:27:28;3.97;;;2.60;;
53367;SDS011;39271;45.618;20.024;2022-11-13T16:29:54;8.95;;;3.20;;
53367;SDS011;39271;45.618;20.024;2022-11-13T16:34:47;3.28;;;2.10;;
53367;SDS011;39271;45.618;20.024;2022-11-13T16:39:39;4.88;;;2.97;;
53367;SDS011;39271;45.618;20.024;2022-11-13T16:42:05;12.75;;;3.40;;
53367;SDS011;39271;45.618;20.024;2022-11-13T16:44:31;8.63;;;4.50;;
53367;SDS011;39271;45.618;20.024;2022-11-13T16:46:57;10.50;;;4.28;;
53367;SDS011;39271;45.618;20.024;2022-11-13T16:49:23;7.78;;;2.85;;
53367;SDS011;39271;45.618;20.024;2022-11-13T16:51:49;9.15;;;4.38;;
53367;SDS011;39271;45.618;20.024;2022-11-13T16:54:17;7.50;;;3.35;;
53367;SDS011;39271;45.618;20.024;2022-11-13T16:59:10;9.07;;;3.17;;
53367;SDS011;39271;45.618;20.024;2022-11-13T17:01:36;4.85;;;3.15;;
53367;SDS011;39271;45.618;20.024;2022-11-13T17:04:02;6.25;;;3.92;;
53367;SDS011;39271;45.618;20.024;2022-11-13T17:06:29;6.22;;;2.92;;
53367;SDS011;39271;45.618;20.024;2022-11-13T17:08:56;8.82;;;3.75;;
53367;SDS011;39271;45.618;20.024;2022-11-13T17:11:23;10.88;;;3.33;;